Miles City, MT

11:24 PM MDT on September 23, 2014 (GMT -0600)
Wiley | Change Station
CLOSE
Current Station
Airport
Location: Miles City,
Elevation: 2628 ft
Nearby Weather Stations

Elev 2628 ft 46.43 °N, 105.88 °W | Updated 31 minutes ago

Clear
Clear
60 °F
Feels Like 60 °F
N
7
Wind Variable Wind from West

Today
High -- | Low -- °F
--% Chance of Precip.
Yesterday
High -- | Low -- °F
Precip. -- in
6:51 AM 6:59 PM
Waning Crescent, 0% visible
Pressure 29.93 in
Visibility 10.0 miles
Clouds Clear
Dew Point 45 °F
Humidity 57%
Rainfall 0.00 in
Snow Depth 0 in , 1 in , 1 in
UV 0 out of 12
Pollen 4.30 out of 12
Air Quality Not available.
Flu Activity Not available.
METAR KMLS 240453Z AUTO 27006KT 10SM CLR 16/07 A2996 RMK AO2 SLP135 T01560072

More Conditions Fewer Conditions

Pressure 29.93 in
Visibility 10.0 miles
Clouds Clear
Dew Point 45 °F
Humidity 57%
Rainfall 0.00 in
Snow Depth 0 in , 1 in , 1 in
UV 0 out of 12
Pollen 4.30 out of 12
Air Quality Not available.
Flu Activity Not available.
METAR KMLS 240453Z AUTO 27006KT 10SM CLR 16/07 A2996 RMK AO2 SLP135 T01560072

More Conditions Fewer Conditions

10-Day Weather Forecast

Almanac

Astronomy

Sep. 23, 2014 Rise Set
Actual Time 6:51 AM MDT 6:59 PM MDT
Civil Twilight 6:21 AM MDT 7:29 PM MDT
Nautical Twilight 5:46 AM MDT 8:04 PM MDT
Astronomical Twilight 5:10 AM MDT 8:40 PM MDT
Moon 6:18 AM MDT (9/23) 6:38 PM MDT (9/23)
Length of Visible Light 13h 07m
Length of Day
12h 07m
Tomorrow will be 3m 17s shorter.
Waning Crescent, 0% of the Moon is Illuminated
Sep 24
Waning Crescent
Sep 24
New
Oct 1
First Quarter
Oct 8
Full
Oct 15
Last Quarter

Yesterday's Extremes

State Highs State Lows

Community

WunderPhotos

Upload Photos

1,755,891 photos uploaded!

WunderBlogs® & News

Nearby

Snow Depth

Station Depth Elevation
Garver Creek 0 in 4250 ft
Black Pine 1 in 7210 ft
Fisher Creek 1 in 9100 ft
Brackett Creek 0 in 7320 ft
Onion Park 0 in 7410 ft

Earthquake Activity

City Distance Mag. Time & Date
No recent earthquake activity has been reported nearby.
Minimum magnitude displayed is 2.5.

Coastal Water Temperatures

Place Temperature
No Stations Reporting

Nearby Weather Stations